Time;durP1;ratioP1;P1;durP2;ratioP2;P2;SDS_P1;SDS_P2;PMS_P1;PMS_P2;Temp;Humidity;BMP_temperature;BMP_pressure;BME280_temperature;BME280_humidity;BME280_pressure;Samples;Min_cycle;Max_cycle;Signal;HPM_P1;HPM_P2
2021/01/21 00:01:37;;;;;;;6.68;1.98;;;;;;;9.56;76.53;98574.66;5031586;28;20061;-92
2021/01/21 00:04:03;;;;;;;5.38;1.73;;;;;;;9.55;77.23;98561.47;5042780;28;20033;-93
2021/01/21 00:06:28;;;;;;;6.35;2.10;;;;;;;9.55;75.99;98566.84;5043861;28;20087;-92
2021/01/21 00:08:54;;;;;;;5.50;1.73;;;;;;;9.53;76.80;98553.66;5038096;28;20069;-92
2021/01/21 00:11:19;;;;;;;9.20;1.80;;;;;;;9.59;76.27;98546.66;5033601;28;20427;-91
2021/01/21 00:13:45;;;;;;;5.50;1.65;;;;;;;9.59;75.31;98519.88;5030072;28;20044;-91
2021/01/21 00:16:10;;;;;;;5.30;1.60;;;;;;;9.60;76.35;98534.88;5036887;28;20033;-92
2021/01/21 00:18:35;;;;;;;7.03;1.83;;;;;;;9.60;75.56;98521.50;5023887;28;20046;-92
2021/01/21 00:21:01;;;;;;;5.10;1.63;;;;;;;9.60;76.25;98506.25;5036081;28;20048;-91
2021/01/21 00:23:26;;;;;;;6.20;1.88;;;;;;;9.57;76.57;98506.69;5039101;28;20513;-93
2021/01/21 00:25:52;;;;;;;8.40;2.28;;;;;;;9.55;76.30;98503.41;5045885;28;20049;-91
2021/01/21 00:28:19;;;;;;;6.05;1.80;;;;;;;9.56;76.19;98498.88;5033994;28;20057;-91
2021/01/21 00:30:45;;;;;;;6.72;1.92;;;;;;;9.52;76.00;98482.41;5011226;28;20048;-92
2021/01/21 00:33:11;;;;;;;5.13;1.73;;;;;;;9.54;76.19;98476.84;5032221;28;20080;-92
2021/01/21 00:35:37;;;;;;;3.58;1.70;;;;;;;9.57;75.83;98458.50;5031666;28;20390;-92
2021/01/21 00:38:04;;;;;;;6.38;1.80;;;;;;;9.56;75.56;98450.69;5025702;28;20075;-92
2021/01/21 00:40:30;;;;;;;5.38;1.98;;;;;;;9.56;75.36;98448.81;5047114;28;20433;-92
2021/01/21 00:43:00;;;;;;;5.47;1.95;;;;;;;9.56;76.02;98438.13;5028436;28;20038;-91
2021/01/21 00:45:26;;;;;;;4.88;1.83;;;;;;;9.56;75.33;98435.44;5030687;28;20490;-92
2021/01/21 00:47:51;;;;;;;4.60;1.45;;;;;;;9.56;75.50;98439.97;5036569;28;20041;-91
2021/01/21 00:50:17;;;;;;;6.68;1.40;;;;;;;9.55;74.89;98431.13;5020299;28;20056;-93
2021/01/21 00:52:42;;;;;;;3.13;1.40;;;;;;;9.54;74.60;98428.66;5012262;28;20045;-91
2021/01/21 00:55:08;;;;;;;7.55;2.00;;;;;;;9.52;75.46;98420.00;5026713;28;20493;-91
2021/01/21 00:57:34;;;;;;;3.53;1.67;;;;;;;9.52;74.60;98409.28;5035317;28;20065;-90
2021/01/21 00:59:59;;;;;;;4.15;1.60;;;;;;;9.54;74.95;98388.50;5029289;28;20068;-93
2021/01/21 01:02:24;;;;;;;5.30;1.45;;;;;;;9.55;75.31;98406.19;5029420;28;20030;-91
2021/01/21 01:04:51;;;;;;;5.05;1.83;;;;;;;9.53;74.20;98397.56;5028255;28;20383;-92
2021/01/21 01:07:16;;;;;;;5.82;1.60;;;;;;;9.54;75.01;98405.38;5028131;28;20037;-92
2021/01/21 01:09:42;;;;;;;3.75;1.70;;;;;;;9.57;74.15;98380.84;5029718;28;20048;-91
2021/01/21 01:12:07;;;;;;;3.30;1.60;;;;;;;9.60;74.74;98377.72;5045399;28;20033;-92
2021/01/21 01:14:33;;;;;;;4.20;1.35;;;;;;;9.57;74.04;98372.00;5053086;28;20052;-92
2021/01/21 01:16:58;;;;;;;5.32;1.38;;;;;;;9.60;73.67;98345.59;5030970;28;20037;-92
2021/01/21 01:19:23;;;;;;;3.58;1.50;;;;;;;9.64;73.69;98360.22;5028697;28;20413;-91
2021/01/21 01:21:49;;;;;;;5.00;1.30;;;;;;;9.66;74.01;98335.88;5028804;28;20045;-91
2021/01/21 01:24:16;;;;;;;6.28;1.67;;;;;;;9.65;73.51;98343.09;5018659;28;20041;-91
2021/01/21 01:26:45;;;;;;;6.30;1.50;;;;;;;9.66;73.93;98350.06;5027984;28;20048;-91
2021/01/21 01:29:12;;;;;;;3.17;1.45;;;;;;;9.67;73.57;98338.34;5031030;28;20441;-91
2021/01/21 01:31:39;;;;;;;4.10;1.25;;;;;;;9.69;72.57;98336.25;5027854;28;20084;-91
2021/01/21 01:34:04;;;;;;;2.70;1.30;;;;;;;9.73;72.63;98319.78;5014089;28;20551;-91
2021/01/21 01:36:29;;;;;;;4.75;1.73;;;;;;;9.71;73.54;98310.09;5035087;23;20050;-82
2021/01/21 01:38:55;;;;;;;3.38;1.45;;;;;;;9.68;73.30;98305.16;4964182;28;20133;-80
2021/01/21 01:41:20;;;;;;;7.07;1.52;;;;;;;9.70;73.24;98284.34;4975619;28;20042;-81
2021/01/21 01:43:49;;;;;;;5.85;1.40;;;;;;;9.75;73.19;98270.28;4987728;28;20061;-81
2021/01/21 01:46:15;;;;;;;2.20;1.13;;;;;;;9.75;72.88;98278.31;4989042;28;20448;-80
2021/01/21 01:48:40;;;;;;;4.75;1.50;;;;;;;9.78;72.34;98266.34;4987862;28;20647;-82
2021/01/21 01:51:06;;;;;;;3.90;1.33;;;;;;;9.75;72.76;98267.59;5003482;28;20133;-81
2021/01/21 01:53:34;;;;;;;3.70;1.23;;;;;;;9.78;72.34;98266.34;4986772;28;20049;-81
2021/01/21 01:55:59;;;;;;;3.83;1.30;;;;;;;9.81;72.69;98263.22;4985756;28;20547;-81
2021/01/21 01:58:26;;;;;;;4.25;1.40;;;;;;;9.80;72.42;98262.41;4987772;28;20046;-81
2021/01/21 02:00:54;;;;;;;2.78;1.30;;;;;;;9.80;72.61;98251.69;4989149;28;20051;-80
2021/01/21 02:03:21;;;;;;;4.25;1.65;;;;;;;9.81;71.67;98231.09;4990242;28;20526;-80
2021/01/21 02:05:48;;;;;;;2.50;1.23;;;;;;;9.79;72.64;98223.28;4988316;28;20696;-81
2021/01/21 02:08:14;;;;;;;3.47;1.27;;;;;;;9.81;72.64;98233.75;4994277;28;20046;-80
2021/01/21 02:10:40;;;;;;;5.15;1.60;;;;;;;9.82;72.45;98230.06;4992588;28;20396;-82
2021/01/21 02:13:30;;;;;;;3.42;1.15;;;;;;;9.84;72.12;98211.88;5004304;28;20111;-81
2021/01/21 02:16:25;;;;;;;4.05;1.33;;;;;;;9.80;72.43;98222.25;4989102;28;20058;-81
2021/01/21 02:19:35;;;;;;;2.85;1.30;;;;;;;9.82;71.49;98217.47;4988147;28;20049;-81
2021/01/21 02:22:19;;;;;;;3.60;1.20;;;;;;;9.84;71.95;98211.88;4962789;28;20054;-80
2021/01/21 02:24:47;;;;;;;4.10;1.52;;;;;;;9.85;72.44;98203.66;4988843;28;20034;-80
2021/01/21 02:27:17;;;;;;;5.78;1.20;;;;;;;9.88;70.52;98189.00;4990208;28;20161;-80
2021/01/21 02:29:43;;;;;;;5.28;1.48;;;;;;;9.91;71.97;98189.34;4989062;28;20034;-80
2021/01/21 02:32:08;;;;;;;4.07;1.20;;;;;;;9.90;70.32;98165.50;5005135;28;20564;-82
2021/01/21 02:34:57;;;;;;;3.55;1.10;;;;;;;9.94;70.54;98180.06;4989095;28;20154;-81
2021/01/21 02:37:30;;;;;;;3.63;1.48;;;;;;;9.94;71.23;98174.69;4985067;28;20042;-81
2021/01/21 02:40:00;;;;;;;2.78;0.93;;;;;;;9.97;70.83;98166.22;4988909;28;20125;-82
2021/01/21 02:42:26;;;;;;;4.45;1.27;;;;;;;10.02;70.54;98161.00;4989006;28;20050;-81
2021/01/21 02:44:52;;;;;;;6.78;1.13;;;;;;;10.07;69.50;98147.75;4986785;28;20501;-82
2021/01/21 02:47:21;;;;;;;3.97;1.20;;;;;;;10.10;70.04;98163.38;4989896;28;20158;-81
2021/01/21 02:49:55;;;;;;;2.58;1.05;;;;;;;10.12;71.07;98150.56;4992603;28;20059;-83
2021/01/21 02:53:08;;;;;;;2.47;0.90;;;;;;;10.19;69.43;98155.03;4990436;28;20129;-82
2021/01/21 02:55:44;;;;;;;5.25;1.20;;;;;;;10.22;69.67;98147.38;4968473;28;20500;-80
2021/01/21 02:58:21;;;;;;;5.15;1.30;;;;;;;10.23;69.76;98140.94;4990375;28;20118;-81
2021/01/21 03:00:51;;;;;;;4.88;1.50;;;;;;;10.17;72.18;98147.22;4985593;28;20462;-81
2021/01/21 03:03:21;;;;;;;2.92;1.10;;;;;;;10.18;70.95;98138.13;4988630;28;20046;-82
2021/01/21 03:05:51;;;;;;;4.82;1.30;;;;;;;10.20;70.43;98129.88;4988863;28;20496;-80
2021/01/21 03:08:17;;;;;;;2.13;1.10;;;;;;;10.21;71.98;98131.50;4989782;28;20810;-82
2021/01/21 03:10:42;;;;;;;5.80;1.38;;;;;;;10.10;73.66;98136.59;4988179;28;20046;-81
2021/01/21 03:13:08;;;;;;;3.42;1.23;;;;;;;10.00;75.08;98124.75;4990807;28;20069;-81
2021/01/21 03:15:33;;;;;;;6.90;1.73;;;;;;;9.86;76.00;98108.84;4991732;28;20077;-82
2021/01/21 03:17:59;;;;;;;2.30;1.10;;;;;;;9.87;75.31;98105.16;4990863;28;20042;-82
2021/01/21 03:20:24;;;;;;;4.03;1.48;;;;;;;9.90;74.70;98093.16;5008038;28;20196;-81
2021/01/21 03:22:50;;;;;;;3.38;1.20;;;;;;;9.94;75.40;98099.69;4995926;28;20046;-82
2021/01/21 03:25:16;;;;;;;4.38;1.20;;;;;;;9.97;74.04;98098.44;4999770;28;20657;-81
2021/01/21 03:27:42;;;;;;;3.33;1.48;;;;;;;9.97;74.78;98103.78;4996119;28;20525;-80
2021/01/21 03:30:09;;;;;;;4.72;1.15;;;;;;;10.01;74.39;98095.09;4986409;28;20053;-80
2021/01/21 03:32:35;;;;;;;4.57;1.45;;;;;;;10.06;74.78;98099.75;4983699;28;20046;-79
2021/01/21 03:35:00;;;;;;;3.15;1.02;;;;;;;10.10;72.34;98080.31;4991913;28;20327;-82
2021/01/21 03:37:25;;;;;;;3.60;1.30;;;;;;;10.15;74.04;98087.66;4986575;28;20049;-80
2021/01/21 03:39:51;;;;;;;2.80;1.05;;;;;;;10.14;73.27;98092.22;4988006;28;20113;-79
2021/01/21 03:42:16;;;;;;;4.20;1.20;;;;;;;10.14;73.91;98078.00;4985242;28;20221;-82
2021/01/21 03:44:42;;;;;;;3.33;1.15;;;;;;;10.14;72.85;98065.41;4986823;28;21147;-81
2021/01/21 03:47:08;;;;;;;5.47;1.10;;;;;;;10.16;73.09;98070.56;5000473;28;20122;-81
2021/01/21 03:49:34;;;;;;;3.58;1.30;;;;;;;10.15;74.62;98059.00;4985836;28;20530;-79
2021/01/21 03:52:00;;;;;;;4.88;1.50;;;;;;;10.14;74.13;98054.69;4987022;28;20042;-81
2021/01/21 03:54:25;;;;;;;2.65;1.35;;;;;;;10.17;73.56;98078.34;4987219;28;20034;-80
2021/01/21 03:56:51;;;;;;;2.90;1.30;;;;;;;10.23;73.59;98057.06;4967604;28;20056;-81
2021/01/21 03:59:16;;;;;;;4.00;1.17;;;;;;;10.24;72.48;98050.63;4985752;28;20100;-81
2021/01/21 04:01:42;;;;;;;3.97;1.23;;;;;;;10.31;72.13;98056.75;4992601;28;20055;-82
2021/01/21 04:04:07;;;;;;;3.50;1.33;;;;;;;10.32;72.43;98026.22;4985591;28;20121;-81
2021/01/21 04:06:33;;;;;;;2.38;1.10;;;;;;;10.41;71.75;98037.44;4985367;28;20129;-81
2021/01/21 04:08:58;;;;;;;3.55;1.50;;;;;;;10.40;72.54;98047.34;4986504;28;20188;-80
2021/01/21 04:11:23;;;;;;;4.53;1.52;;;;;;;10.45;72.03;98052.03;4986810;28;20041;-78
2021/01/21 04:13:49;;;;;;;5.97;1.58;;;;;;;10.49;72.14;98070.09;4988389;28;20042;-81
2021/01/21 04:16:14;;;;;;;1.85;1.08;;;;;;;10.54;71.43;98064.84;4985392;28;20100;-81
2021/01/21 04:18:40;;;;;;;2.45;1.00;;;;;;;10.57;71.36;98067.06;4985315;28;20042;-78
2021/01/21 04:21:05;;;;;;;3.97;1.10;;;;;;;10.65;70.64;98059.75;4986794;28;20154;-79
2021/01/21 04:23:33;;;;;;;5.43;1.20;;;;;;;10.68;70.90;98044.00;4986881;28;20531;-79
2021/01/21 04:25:59;;;;;;;5.05;1.80;;;;;;;10.70;71.56;98054.50;4993411;28;20120;-81
2021/01/21 04:28:24;;;;;;;4.47;1.10;;;;;;;10.61;73.18;98057.50;4986433;28;20444;-78
2021/01/21 04:30:50;;;;;;;2.22;1.02;;;;;;;10.54;74.48;98069.41;4986724;28;20575;-80
2021/01/21 04:33:15;;;;;;;2.95;1.17;;;;;;;10.45;76.00;98062.75;4978378;28;20070;-78
2021/01/21 04:35:40;;;;;;;6.25;1.30;;;;;;;10.37;76.69;98051.28;4990399;28;20042;-78
2021/01/21 04:38:06;;;;;;;4.22;1.10;;;;;;;10.29;77.27;98030.19;4992884;28;20046;-78
2021/01/21 04:40:31;;;;;;;3.00;0.93;;;;;;;10.27;78.04;98069.81;4992145;28;20132;-78
2021/01/21 04:42:56;;;;;;;2.55;1.02;;;;;;;10.21;78.32;98054.59;4992245;28;20046;-80
2021/01/21 04:45:22;;;;;;;5.90;1.13;;;;;;;10.17;78.56;98051.56;4991138;28;20046;-81
2021/01/21 04:47:48;;;;;;;4.45;0.88;;;;;;;10.21;77.52;98051.09;4988518;28;20039;-79
2021/01/21 04:50:13;;;;;;;3.08;0.77;;;;;;;10.24;78.11;98048.81;5005463;28;20038;-82
2021/01/21 04:52:43;;;;;;;2.28;1.02;;;;;;;10.23;78.91;98054.38;4990634;28;20046;-78
2021/01/21 04:55:16;;;;;;;2.67;1.08;;;;;;;10.20;79.28;98046.78;4992123;28;20042;-78
2021/01/21 04:57:59;;;;;;;2.97;1.45;;;;;;;10.12;80.42;98055.97;4988136;28;20038;-78
2021/01/21 05:00:26;;;;;;;2.45;0.70;;;;;;;10.07;81.19;98066.53;4977631;28;20050;-78
2021/01/21 05:02:53;;;;;;;3.13;0.93;;;;;;;9.96;83.06;98078.88;5003249;28;20069;-83
2021/01/21 05:05:19;;;;;;;3.28;0.80;;;;;;;9.88;84.46;98081.84;4995313;28;20038;-78
2021/01/21 05:07:45;;;;;;;2.30;0.90;;;;;;;9.78;85.63;98074.34;4991637;28;20145;-84
2021/01/21 05:10:12;;;;;;;3.67;1.33;;;;;;;9.73;87.30;98097.50;4993752;28;20500;-78
2021/01/21 05:12:38;;;;;;;3.25;1.38;;;;;;;9.64;88.92;98239.72;4989101;28;20122;-81
2021/01/21 05:15:04;;;;;;;7.32;1.30;;;;;;;8.62;80.48;98337.91;4995536;28;20079;-78
2021/01/21 05:17:31;;;;;;;5.88;0.98;;;;;;;6.66;84.15;98319.59;5002752;28;20129;-81
2021/01/21 05:19:57;;;;;;;2.85;0.68;;;;;;;5.82;89.63;98347.16;5005887;28;20444;-78
2021/01/21 05:22:22;;;;;;;2.33;0.63;;;;;;;5.58;93.08;98344.91;4989367;28;20046;-79
2021/01/21 05:24:48;;;;;;;3.25;0.80;;;;;;;5.52;96.00;98329.72;4980844;28;20509;-80
2021/01/21 05:27:14;;;;;;;3.10;1.10;;;;;;;5.41;97.24;98323.91;4996281;28;20492;-81
2021/01/21 05:29:48;;;;;;;6.85;0.80;;;;;;;5.37;97.64;98332.44;4988817;28;20049;-81
2021/01/21 05:32:15;;;;;;;3.35;0.63;;;;;;;5.37;98.01;98343.09;5002466;28;20045;-80
2021/01/21 05:34:43;;;;;;;3.70;0.85;;;;;;;5.46;98.09;98325.97;5001361;28;20054;-79
2021/01/21 05:37:14;;;;;;;2.28;0.80;;;;;;;5.50;98.78;98335.22;4988012;28;20042;-82
2021/01/21 05:39:41;;;;;;;2.65;0.73;;;;;;;5.53;98.00;98324.22;4987473;28;20038;-80
2021/01/21 05:42:07;;;;;;;2.30;0.88;;;;;;;5.57;97.88;98327.31;4989210;28;20500;-79
2021/01/21 05:44:33;;;;;;;2.78;1.00;;;;;;;5.61;98.61;98342.69;4994372;28;20128;-79
2021/01/21 05:47:03;;;;;;;2.42;0.68;;;;;;;5.63;98.10;98369.09;4986426;28;20058;-80
2021/01/21 05:49:29;;;;;;;2.20;0.75;;;;;;;5.63;97.97;98369.91;4987899;28;20050;-80
2021/01/21 05:51:56;;;;;;;3.10;0.70;;;;;;;5.69;98.31;98347.03;4987570;28;20084;-79
2021/01/21 05:54:29;;;;;;;1.67;0.70;;;;;;;5.77;98.47;98391.34;4984282;28;20050;-80
2021/01/21 05:57:00;;;;;;;2.45;0.73;;;;;;;5.80;97.82;98380.31;4986313;28;20046;-80
2021/01/21 05:59:28;;;;;;;1.65;0.57;;;;;;;5.86;96.70;98358.22;5011756;28;20050;-80
2021/01/21 06:01:54;;;;;;;4.28;0.73;;;;;;;5.90;95.73;98351.53;4986584;28;20847;-81
2021/01/21 06:04:25;;;;;;;2.67;0.60;;;;;;;5.93;95.78;98376.91;4987662;28;20035;-80
2021/01/21 06:06:52;;;;;;;2.28;0.50;;;;;;;5.92;93.54;98361.97;4986909;28;20115;-81
2021/01/21 06:09:31;;;;;;;4.13;0.95;;;;;;;5.88;92.27;98380.97;4993763;28;20069;-81
2021/01/21 06:11:59;;;;;;;5.20;0.88;;;;;;;5.93;93.44;98385.78;4984075;28;20123;-80
2021/01/21 06:14:24;;;;;;;4.10;0.75;;;;;;;5.94;93.56;98406.03;4985194;28;20046;-83
2021/01/21 06:16:51;;;;;;;1.98;0.63;;;;;;;5.93;92.28;98424.81;4985166;28;20070;-80
2021/01/21 06:19:17;;;;;;;1.98;0.50;;;;;;;5.94;90.99;98426.53;5001467;28;20034;-81
2021/01/21 06:21:47;;;;;;;0.90;0.50;;;;;;;5.96;91.15;98438.63;4986539;28;20044;-78
2021/01/21 06:24:16;;;;;;;4.07;0.70;;;;;;;5.96;91.31;98461.75;4987423;28;20480;-81
2021/01/21 06:26:45;;;;;;;4.13;0.90;;;;;;;5.97;92.05;98437.59;4985614;28;20046;-80
2021/01/21 06:29:15;;;;;;;4.13;1.00;;;;;;;5.90;91.09;98452.69;4984182;28;20064;-81
2021/01/21 06:31:41;;;;;;;2.15;0.70;;;;;;;5.91;91.44;98438.34;4983351;28;20440;-80
2021/01/21 06:34:11;;;;;;;2.88;0.60;;;;;;;5.93;90.84;98443.47;4983421;28;20038;-83
2021/01/21 06:36:41;;;;;;;2.03;0.60;;;;;;;5.94;89.51;98430.00;4977510;28;20046;-82
2021/01/21 06:39:10;;;;;;;2.28;0.70;;;;;;;5.94;90.34;98461.94;4981577;28;20062;-82
2021/01/21 06:41:39;;;;;;;3.17;0.60;;;;;;;5.94;90.57;98451.28;4966800;28;20046;-80
2021/01/21 06:44:05;;;;;;;5.18;0.80;;;;;;;5.96;91.15;98462.59;4987802;28;20070;-80
2021/01/21 06:46:31;;;;;;;3.75;0.85;;;;;;;5.99;91.20;98485.34;4990053;28;20497;-80
2021/01/21 06:48:56;;;;;;;3.90;1.00;;;;;;;5.98;90.97;98505.78;5006305;28;20042;-80
2021/01/21 06:51:22;;;;;;;3.25;0.80;;;;;;;5.99;91.94;98511.97;4990745;28;20050;-80
2021/01/21 06:53:51;;;;;;;3.33;0.80;;;;;;;5.97;90.54;98522.78;4987745;28;20433;-80
2021/01/21 06:56:16;;;;;;;4.07;0.63;;;;;;;5.97;91.81;98528.13;4984685;28;20035;-79
2021/01/21 06:58:48;;;;;;;5.13;0.93;;;;;;;5.96;91.67;98530.97;4989870;28;20053;-79
2021/01/21 07:01:32;;;;;;;2.33;0.93;;;;;;;5.95;92.02;98535.47;5004719;28;20048;-81
2021/01/21 07:04:04;;;;;;;4.80;1.15;;;;;;;5.95;92.28;98545.28;4999321;28;20506;-80
2021/01/21 07:07:03;;;;;;;2.60;1.02;;;;;;;5.94;91.02;98549.78;4999397;28;20053;-81
2021/01/21 07:09:32;;;;;;;5.30;0.95;;;;;;;5.94;91.24;98556.97;4983786;28;20046;-81
2021/01/21 07:12:00;;;;;;;5.03;0.82;;;;;;;5.94;91.21;98584.41;4987784;28;20034;-81
2021/01/21 07:14:31;;;;;;;3.33;0.95;;;;;;;5.92;90.67;98574.91;5007827;28;20034;-78
2021/01/21 07:17:00;;;;;;;3.35;1.20;;;;;;;5.95;91.00;98574.56;4986087;28;20066;-80
2021/01/21 07:19:40;;;;;;;4.35;0.85;;;;;;;5.94;91.08;98586.25;4988245;28;20170;-79
2021/01/21 07:22:24;;;;;;;;;;;;;;;5.92;90.88;98589.06;4988877;28;20057;-79
2021/01/21 07:24:53;;;;;;;5.75;1.13;;;;;;;5.84;91.47;98594.47;5006708;28;19952;-79
2021/01/21 07:27:20;;;;;;;5.45;1.10;;;;;;;5.84;92.67;98618.44;5002815;28;20404;-81
2021/01/21 07:29:45;;;;;;;5.60;1.73;;;;;;;5.86;91.98;98608.44;4985032;28;20042;-82
2021/01/21 07:32:11;;;;;;;5.55;1.55;;;;;;;5.88;90.20;98622.41;4999008;28;20042;-82
2021/01/21 07:34:39;;;;;;;7.63;1.60;;;;;;;5.88;90.54;98617.06;4986803;28;20043;-82
2021/01/21 07:37:29;;;;;;;8.35;1.30;;;;;;;5.83;90.66;98636.25;4986245;28;20129;-79
2021/01/21 07:40:03;;;;;;;8.18;1.50;;;;;;;5.82;91.00;98644.44;5001993;28;20050;-82
2021/01/21 07:42:37;;;;;;;4.63;1.10;;;;;;;5.81;89.97;98653.41;5004072;28;20042;-82
2021/01/21 07:45:06;;;;;;;6.30;1.73;;;;;;;5.82;90.45;98653.25;4986610;28;20034;-83
2021/01/21 07:47:34;;;;;;;5.82;1.20;;;;;;;5.77;89.28;98666.28;4993016;28;20042;-82
2021/01/21 07:50:34;;;;;;;6.15;1.30;;;;;;;5.76;88.91;98664.63;4985424;28;20558;-81
2021/01/21 07:53:06;;;;;;;5.25;0.80;;;;;;;5.74;89.62;98663.16;5009170;28;20042;-81
2021/01/21 07:55:36;;;;;;;4.65;1.00;;;;;;;5.73;89.15;98667.66;4988305;28;20440;-81
2021/01/21 07:58:30;;;;;;;5.82;1.48;;;;;;;5.71;89.21;98675.00;4988826;28;20129;-82
2021/01/21 08:01:00;;;;;;;8.35;1.40;;;;;;;5.68;89.96;98679.88;4984674;28;20042;-81
2021/01/21 08:03:41;;;;;;;6.32;1.50;;;;;;;5.65;89.40;98673.91;4984830;28;20046;-82
2021/01/21 08:06:10;;;;;;;5.55;1.50;;;;;;;5.68;88.39;98693.19;4983981;28;20435;-81
2021/01/21 08:08:36;;;;;;;10.10;1.52;;;;;;;5.66;88.33;98678.19;4994158;28;20049;-81
2021/01/21 08:11:06;;;;;;;7.00;1.75;;;;;;;5.69;89.11;98684.19;5016764;28;20038;-82
2021/01/21 08:13:33;;;;;;;5.82;1.50;;;;;;;5.71;89.67;98660.88;5008593;28;20169;-81
2021/01/21 08:15:59;;;;;;;5.60;1.77;;;;;;;5.71;89.19;98690.16;5009299;28;20527;-83
2021/01/21 08:18:24;;;;;;;6.18;1.58;;;;;;;5.70;89.81;98694.66;4993759;28;20046;-81
2021/01/21 08:20:50;;;;;;;9.82;1.40;;;;;;;5.67;88.76;98711.00;5001623;28;20051;-81
2021/01/21 08:23:16;;;;;;;5.75;1.63;;;;;;;5.71;88.88;98700.78;4991239;28;20050;-82
2021/01/21 08:25:46;;;;;;;8.25;2.03;;;;;;;5.73;90.01;98698.78;5008253;28;20046;-82
2021/01/21 08:28:17;;;;;;;6.10;1.42;;;;;;;5.72;89.21;98707.75;5006365;28;20140;-81
2021/01/21 08:30:44;;;;;;;8.35;1.80;;;;;;;5.71;89.65;98695.47;4991613;28;20120;-81
2021/01/21 08:33:28;;;;;;;5.97;1.27;;;;;;;5.72;89.79;98727.22;4993647;28;20103;-82
2021/01/21 08:36:05;;;;;;;7.28;1.60;;;;;;;5.71;89.59;98719.41;4992677;28;20046;-82
2021/01/21 08:38:42;;;;;;;7.97;1.42;;;;;;;5.71;88.85;98714.09;4990811;28;20560;-81
2021/01/21 08:41:12;;;;;;;6.97;1.50;;;;;;;5.72;89.19;98723.72;4983753;28;20039;-83
2021/01/21 08:43:42;;;;;;;7.60;1.60;;;;;;;5.73;89.62;98723.56;4979160;28;20045;-82
2021/01/21 08:46:21;;;;;;;5.70;1.70;;;;;;;5.74;88.82;98721.72;4986934;28;20575;-82
2021/01/21 08:48:48;;;;;;;7.32;1.60;;;;;;;5.75;89.28;98740.16;5007852;28;20053;-81
2021/01/21 08:51:34;;;;;;;8.80;2.38;;;;;;;5.75;89.89;98734.00;4990615;28;20038;-83
2021/01/21 08:54:11;;;;;;;7.43;1.27;;;;;;;5.75;89.30;98739.31;4999189;28;20042;-82
2021/01/21 08:56:36;;;;;;;13.35;2.58;;;;;;;5.79;89.94;98740.63;4992224;28;20038;-81
2021/01/21 08:59:25;;;;;;;12.27;1.98;;;;;;;5.82;89.97;98735.75;4993018;28;20469;-81
2021/01/21 09:01:50;;;;;;;11.52;2.03;;;;;;;5.86;90.07;98754.84;4991404;28;20038;-82
2021/01/21 09:04:31;;;;;;;9.18;2.10;;;;;;;5.88;89.67;98766.13;4992772;28;20038;-84
2021/01/21 09:06:59;;;;;;;9.05;2.17;;;;;;;5.90;89.62;98769.44;4990908;28;20066;-82
2021/01/21 09:09:41;;;;;;;9.20;1.65;;;;;;;5.92;89.49;98762.09;4988873;28;20042;-85
2021/01/21 09:12:17;;;;;;;6.53;1.30;;;;;;;5.92;88.40;98761.28;4990255;28;20038;-82
2021/01/21 09:14:44;;;;;;;8.95;1.90;;;;;;;5.95;89.24;98780.38;4988556;28;20452;-82
2021/01/21 09:17:16;;;;;;;8.40;2.70;;;;;;;5.97;89.31;98767.72;4991377;28;20034;-82
2021/01/21 09:19:45;;;;;;;8.15;2.08;;;;;;;6.03;89.37;98776.81;5002747;28;20598;-83
2021/01/21 09:22:15;;;;;;;9.13;2.33;;;;;;;6.01;88.62;98774.34;5006763;28;20054;-81
2021/01/21 09:25:01;;;;;;;8.38;2.22;;;;;;;6.03;88.01;98779.47;4989367;28;20038;-80
2021/01/21 09:27:28;;;;;;;12.05;2.00;;;;;;;6.03;88.20;98772.31;4989125;28;20045;-83
2021/01/21 09:29:56;;;;;;;9.85;1.80;;;;;;;6.04;87.85;98787.28;4992182;28;20038;-83
2021/01/21 09:32:31;;;;;;;8.85;2.50;;;;;;;6.06;88.01;98763.94;4992660;28;20137;-81
2021/01/21 09:35:08;;;;;;;11.15;2.63;;;;;;;6.06;87.85;98781.78;5004389;28;20042;-82
2021/01/21 09:37:39;;;;;;;7.45;1.95;;;;;;;6.09;87.98;98782.22;4989836;28;20046;-83
2021/01/21 09:40:09;;;;;;;8.05;2.28;;;;;;;6.18;89.12;98790.13;4988247;28;20038;-81
2021/01/21 09:42:35;;;;;;;8.95;1.83;;;;;;;6.20;88.03;98786.25;4991238;28;20042;-85
2021/01/21 09:45:01;;;;;;;7.28;1.98;;;;;;;6.19;88.09;98794.47;4993012;28;20352;-80
2021/01/21 09:47:27;;;;;;;7.53;1.60;;;;;;;6.17;87.90;98785.81;4994784;28;20022;-81
2021/01/21 09:49:52;;;;;;;10.63;2.67;;;;;;;6.17;87.92;98807.13;5010022;28;20015;-82
2021/01/21 09:52:18;;;;;;;13.02;2.35;;;;;;;6.24;86.98;98786.72;5011610;28;20050;-81
2021/01/21 09:54:43;;;;;;;8.98;1.90;;;;;;;6.29;85.61;98798.47;5007376;28;20077;-83
2021/01/21 09:57:09;;;;;;;6.03;1.40;;;;;;;6.35;85.68;98799.56;5007199;28;20069;-82
2021/01/21 09:59:35;;;;;;;11.90;2.25;;;;;;;6.39;86.00;98805.34;4991861;28;20034;-83
2021/01/21 10:02:01;;;;;;;6.78;1.85;;;;;;;6.43;85.54;98786.16;5008339;28;20081;-85
2021/01/21 10:04:27;;;;;;;9.18;2.13;;;;;;;6.41;85.42;98787.34;4990514;28;20409;-84
2021/01/21 10:06:52;;;;;;;10.52;2.00;;;;;;;6.40;85.80;98786.53;4987812;28;20038;-82
2021/01/21 10:09:18;;;;;;;8.38;1.98;;;;;;;6.41;85.29;98801.47;4992034;28;20038;-82
2021/01/21 10:11:44;;;;;;;4.70;1.70;;;;;;;6.44;84.54;98794.97;4986992;28;20057;-82
2021/01/21 10:14:10;;;;;;;7.22;1.77;;;;;;;6.53;85.85;98796.50;4988552;28;20038;-83
2021/01/21 10:16:35;;;;;;;6.47;1.80;;;;;;;6.61;85.55;98811.56;4991047;28;20038;-82
2021/01/21 10:19:01;;;;;;;7.05;1.90;;;;;;;6.64;85.30;98801.34;4990990;28;20133;-83
2021/01/21 10:21:27;;;;;;;11.85;2.10;;;;;;;6.64;84.65;98803.19;4990672;28;20042;-81
2021/01/21 10:23:53;;;;;;;7.65;1.67;;;;;;;6.66;84.27;98794.00;5001221;28;20093;-84
2021/01/21 10:26:19;;;;;;;8.48;2.13;;;;;;;6.63;83.46;98810.38;4974498;28;20042;-82
2021/01/21 10:28:45;;;;;;;8.15;1.63;;;;;;;6.65;84.01;98797.69;4991531;28;20386;-82
2021/01/21 10:31:11;;;;;;;8.02;1.88;;;;;;;6.66;84.12;98811.84;4989828;28;20049;-83
2021/01/21 10:33:36;;;;;;;8.45;1.88;;;;;;;6.65;83.93;98811.00;5010630;28;20042;-83
2021/01/21 10:36:05;;;;;;;6.30;1.52;;;;;;;6.68;83.89;98820.47;4991721;28;20042;-87
2021/01/21 10:38:31;;;;;;;7.00;2.03;;;;;;;6.69;84.48;98806.94;4954244;28;20505;-82
2021/01/21 10:40:57;;;;;;;5.88;1.50;;;;;;;6.67;82.55;98806.31;4988844;28;20117;-82
2021/01/21 10:43:22;;;;;;;5.85;1.58;;;;;;;6.68;82.06;98833.81;4984022;28;20200;-81
2021/01/21 10:45:48;;;;;;;9.48;1.58;;;;;;;6.69;81.91;98817.63;5000155;28;20588;-81
2021/01/21 10:48:13;;;;;;;10.15;1.77;;;;;;;6.71;82.85;98810.25;4970943;28;20129;-82
2021/01/21 10:50:39;;;;;;;11.38;2.03;;;;;;;6.73;82.14;98812.72;4998553;28;20030;-83
2021/01/21 10:53:04;;;;;;;8.02;1.40;;;;;;;6.75;81.81;98816.03;4990398;28;20101;-83
2021/01/21 10:55:29;;;;;;;10.70;1.80;;;;;;;6.80;82.64;98839.47;4990173;28;20117;-83
2021/01/21 10:57:55;;;;;;;7.65;1.85;;;;;;;6.77;82.29;98808.69;4991584;28;20046;-81
2021/01/21 11:00:21;;;;;;;8.57;1.73;;;;;;;6.75;82.36;98810.72;4995228;28;20038;-83
2021/01/21 11:02:46;;;;;;;4.28;1.60;;;;;;;6.75;82.19;98827.53;4970545;28;20479;-84
2021/01/21 11:05:13;;;;;;;8.95;1.98;;;;;;;6.78;83.36;98821.00;4981962;28;20034;-82
2021/01/21 11:07:38;;;;;;;6.40;1.95;;;;;;;6.79;83.05;98806.66;4993477;28;20046;-83
2021/01/21 11:10:04;;;;;;;6.20;1.90;;;;;;;6.75;82.21;98816.84;4997387;28;20500;-82
2021/01/21 11:12:30;;;;;;;9.93;1.90;;;;;;;6.75;82.53;98822.19;4989240;28;20053;-83
2021/01/21 11:14:55;;;;;;;5.85;2.15;;;;;;;6.77;82.32;98803.34;5001985;28;20437;-82
2021/01/21 11:17:21;;;;;;;5.90;1.60;;;;;;;6.77;82.52;98814.84;4985434;28;20082;-83
2021/01/21 11:19:46;;;;;;;5.55;2.10;;;;;;;6.76;82.29;98801.69;4987503;28;20034;-84
2021/01/21 11:22:11;;;;;;;9.48;1.83;;;;;;;6.75;81.86;98822.19;4988477;28;20046;-82
2021/01/21 11:24:37;;;;;;;9.85;2.40;;;;;;;6.78;82.69;98826.31;4989913;28;20070;-82
2021/01/21 11:27:02;;;;;;;7.40;1.83;;;;;;;6.77;81.91;98816.69;4987502;28;20065;-83
2021/01/21 11:29:27;;;;;;;5.40;1.90;;;;;;;6.82;82.59;98811.63;4986977;28;20047;-82
2021/01/21 11:31:53;;;;;;;10.10;2.05;;;;;;;6.83;82.69;98829.25;4987807;28;20109;-81
2021/01/21 11:34:19;;;;;;;7.28;1.90;;;;;;;6.85;82.76;98824.56;4990403;28;20049;-84
2021/01/21 11:36:45;;;;;;;5.45;1.75;;;;;;;6.85;82.50;98821.06;5003570;28;20485;-84
2021/01/21 11:39:10;;;;;;;5.93;1.65;;;;;;;6.83;81.82;98845.25;5006184;28;20035;-83
2021/01/21 11:41:36;;;;;;;7.40;2.10;;;;;;;6.87;83.27;98827.03;4989932;28;20045;-81
2021/01/21 11:44:02;;;;;;;7.80;1.67;;;;;;;6.86;82.27;98822.72;4995890;28;20061;-83
2021/01/21 11:46:27;;;;;;;7.97;1.75;;;;;;;6.88;83.00;98815.38;4992467;28;20092;-84